DAL4033 KATL-KMIA
Flight info
| Callsign | DAL4033 |
|---|---|
| Flight time | 1h 28m |
| Altitude | 37000 |
| Route | BANNG3 LUCKK HONID FROGZ5 |
| Aircraft | A320/M-SDE3FGHIRWY/LB1 |
Departure
| Time | 2026-05-03 22:24 |
|---|---|
| Airport | Hartsfield Jackson Atlanta International Airport (KATL) |
Arrival
| Time | 2026-05-03 23:52 |
|---|---|
| Airport | Miami International Airport (KMIA) |
| Time | Latitude | Longitude | Altitude | Speed | Heading |
|---|---|---|---|---|---|
| 2026-05-03 22:00 | 33.64015 | -84.43870 | 1006 ft | 0 kts | 270° |
| 2026-05-03 22:01 | 33.64015 | -84.43875 | 1006 ft | 0 kts | 269° |
| 2026-05-03 22:10 | 33.64015 | -84.43873 | 1006 ft | 2 kts | 269° |
| 2026-05-03 22:10 | 33.64015 | -84.43843 | 1006 ft | 4 kts | 268° |
| 2026-05-03 22:10 | 33.64019 | -84.43812 | 1006 ft | 4 kts | 244° |
| 2026-05-03 22:11 | 33.64034 | -84.43790 | 1006 ft | 4 kts | 197° |
| 2026-05-03 22:11 | 33.64047 | -84.43787 | 1006 ft | 1 kts | 180° |
| 2026-05-03 22:11 | 33.64048 | -84.43787 | 1006 ft | 0 kts | 180° |
| 2026-05-03 22:13 | 33.64039 | -84.43786 | 1006 ft | 6 kts | 178° |
| 2026-05-03 22:13 | 33.63993 | -84.43783 | 1006 ft | 6 kts | 176° |
| 2026-05-03 22:13 | 33.63950 | -84.43778 | 1006 ft | 8 kts | 174° |
| 2026-05-03 22:13 | 33.63863 | -84.43773 | 1006 ft | 13 kts | 177° |
| 2026-05-03 22:14 | 33.63778 | -84.43773 | 1006 ft | 12 kts | 180° |
| 2026-05-03 22:14 | 33.63685 | -84.43719 | 1006 ft | 16 kts | 126° |
| 2026-05-03 22:14 | 33.63666 | -84.43593 | 1006 ft | 15 kts | 88° |
| 2026-05-03 22:14 | 33.63665 | -84.43496 | 1006 ft | 12 kts | 90° |
| 2026-05-03 22:15 | 33.63665 | -84.43380 | 1006 ft | 21 kts | 90° |
| 2026-05-03 22:15 | 33.63665 | -84.43184 | 1006 ft | 23 kts | 90° |
| 2026-05-03 22:15 | 33.63664 | -84.42988 | 1006 ft | 24 kts | 90° |
| 2026-05-03 22:15 | 33.63663 | -84.42785 | 1006 ft | 25 kts | 94° |
| 2026-05-03 22:16 | 33.63656 | -84.42584 | 1007 ft | 24 kts | 89° |
| 2026-05-03 22:16 | 33.63657 | -84.42390 | 1007 ft | 23 kts | 91° |
| 2026-05-03 22:16 | 33.63652 | -84.42194 | 1007 ft | 24 kts | 91° |
| 2026-05-03 22:16 | 33.63655 | -84.41995 | 1006 ft | 24 kts | 87° |
| 2026-05-03 22:17 | 33.63654 | -84.41785 | 1006 ft | 26 kts | 89° |
| 2026-05-03 22:17 | 33.63656 | -84.41562 | 1006 ft | 28 kts | 89° |
| 2026-05-03 22:17 | 33.63658 | -84.41331 | 1006 ft | 24 kts | 90° |
| 2026-05-03 22:17 | 33.63658 | -84.41166 | 1006 ft | 18 kts | 88° |
| 2026-05-03 22:18 | 33.63658 | -84.41087 | 1006 ft | 3 kts | 91° |
| 2026-05-03 22:18 | 33.63658 | -84.41066 | 1006 ft | 2 kts | 92° |
| 2026-05-03 22:18 | 33.63657 | -84.41062 | 1006 ft | 0 kts | 92° |
| 2026-05-03 22:19 | 33.63654 | -84.41006 | 1006 ft | 13 kts | 94° |
| 2026-05-03 22:19 | 33.63650 | -84.40933 | 1006 ft | 8 kts | 108° |
| 2026-05-03 22:19 | 33.63615 | -84.40909 | 1006 ft | 0 kts | 177° |
| 2026-05-03 22:21 | 33.63596 | -84.40909 | 1006 ft | 3 kts | 180° |
| 2026-05-03 22:21 | 33.63582 | -84.40909 | 1006 ft | 0 kts | 180° |
| 2026-05-03 22:22 | 33.63574 | -84.40909 | 1006 ft | 8 kts | 180° |
| 2026-05-03 22:22 | 33.63500 | -84.40910 | 1007 ft | 7 kts | 188° |
| 2026-05-03 22:23 | 33.63471 | -84.40946 | 1007 ft | 6 kts | 251° |
| 2026-05-03 22:23 | 33.63471 | -84.40998 | 1007 ft | 9 kts | 272° |
| 2026-05-03 22:23 | 33.63474 | -84.41317 | 1006 ft | 76 kts | 269° |
| 2026-05-03 22:23 | 33.63474 | -84.42213 | 1007 ft | 137 kts | 270° |
| 2026-05-03 22:24 | 33.63476 | -84.43513 | 1310 ft | 159 kts | 270° |
| 2026-05-03 22:24 | 33.63484 | -84.44827 | 2120 ft | 158 kts | 271° |
| 2026-05-03 22:24 | 33.63478 | -84.46146 | 2848 ft | 160 kts | 271° |
| 2026-05-03 22:24 | 33.63473 | -84.47561 | 3280 ft | 181 kts | 271° |
| 2026-05-03 22:25 | 33.63469 | -84.49171 | 3631 ft | 205 kts | 271° |
| 2026-05-03 22:25 | 33.63465 | -84.50986 | 4080 ft | 230 kts | 271° |
| 2026-05-03 22:25 | 33.63461 | -84.53004 | 4596 ft | 252 kts | 270° |
| 2026-05-03 22:25 | 33.63457 | -84.55135 | 5462 ft | 258 kts | 271° |
| 2026-05-03 22:26 | 33.63454 | -84.57315 | 6383 ft | 264 kts | 271° |
| 2026-05-03 22:26 | 33.63452 | -84.59532 | 7294 ft | 267 kts | 271° |
| 2026-05-03 22:26 | 33.63449 | -84.61776 | 8216 ft | 271 kts | 270° |
| 2026-05-03 22:26 | 33.63116 | -84.64022 | 9124 ft | 278 kts | 252° |
| 2026-05-03 22:27 | 33.62179 | -84.66074 | 10033 ft | 285 kts | 233° |
| 2026-05-03 22:27 | 33.60692 | -84.67682 | 10847 ft | 294 kts | 214° |
| 2026-05-03 22:27 | 33.58839 | -84.68760 | 11683 ft | 300 kts | 201° |
| 2026-05-03 22:27 | 33.56779 | -84.69291 | 12528 ft | 307 kts | 187° |
| 2026-05-03 22:28 | 33.54627 | -84.69182 | 13360 ft | 313 kts | 174° |
| 2026-05-03 22:28 | 33.52458 | -84.68770 | 13860 ft | 317 kts | 174° |
| 2026-05-03 22:28 | 33.50275 | -84.68354 | 13988 ft | 317 kts | 174° |
| 2026-05-03 22:28 | 33.48128 | -84.67947 | 14014 ft | 316 kts | 174° |
| 2026-05-03 22:29 | 33.45929 | -84.67533 | 14018 ft | 316 kts | 174° |
| 2026-05-03 22:29 | 33.43759 | -84.67128 | 14022 ft | 316 kts | 174° |
| 2026-05-03 22:29 | 33.41619 | -84.66528 | 14540 ft | 323 kts | 163° |
| 2026-05-03 22:29 | 33.39477 | -84.65462 | 14854 ft | 345 kts | 159° |
| 2026-05-03 22:30 | 33.37220 | -84.64260 | 15103 ft | 364 kts | 158° |
| 2026-05-03 22:30 | 33.34887 | -84.62998 | 15680 ft | 371 kts | 158° |
| 2026-05-03 22:30 | 33.32527 | -84.61712 | 16345 ft | 375 kts | 158° |
| 2026-05-03 22:30 | 33.30143 | -84.60410 | 17037 ft | 378 kts | 158° |
| 2026-05-03 22:31 | 33.27732 | -84.59099 | 17727 ft | 382 kts | 159° |
| 2026-05-03 22:31 | 33.25302 | -84.57782 | 18410 ft | 385 kts | 159° |
| 2026-05-03 22:31 | 33.22853 | -84.56460 | 19002 ft | 389 kts | 159° |
| 2026-05-03 22:31 | 33.20378 | -84.55130 | 19583 ft | 392 kts | 159° |
| 2026-05-03 22:32 | 33.17875 | -84.53790 | 20186 ft | 395 kts | 159° |
| 2026-05-03 22:32 | 33.15361 | -84.52443 | 20779 ft | 398 kts | 159° |
| 2026-05-03 22:32 | 33.12828 | -84.51088 | 21366 ft | 401 kts | 159° |
| 2026-05-03 22:32 | 33.10269 | -84.49717 | 21956 ft | 405 kts | 159° |
| 2026-05-03 22:33 | 33.07691 | -84.48336 | 22530 ft | 408 kts | 159° |
| 2026-05-03 22:33 | 33.05091 | -84.46942 | 23111 ft | 411 kts | 159° |
| 2026-05-03 22:33 | 33.02474 | -84.45541 | 23657 ft | 414 kts | 160° |
| 2026-05-03 22:33 | 32.99838 | -84.44131 | 24142 ft | 416 kts | 160° |
| 2026-05-03 22:34 | 32.97140 | -84.42893 | 24603 ft | 414 kts | 168° |
| 2026-05-03 22:34 | 32.94330 | -84.42195 | 25050 ft | 411 kts | 178° |
| 2026-05-03 22:34 | 32.91487 | -84.42029 | 25491 ft | 409 kts | 184° |
| 2026-05-03 22:34 | 32.88625 | -84.41986 | 25924 ft | 411 kts | 184° |
| 2026-05-03 22:35 | 32.85760 | -84.41936 | 26358 ft | 413 kts | 184° |
| 2026-05-03 22:35 | 32.82876 | -84.41879 | 26790 ft | 415 kts | 184° |
| 2026-05-03 22:35 | 32.79979 | -84.41817 | 27202 ft | 417 kts | 184° |
| 2026-05-03 22:35 | 32.77069 | -84.41756 | 27614 ft | 419 kts | 185° |
| 2026-05-03 22:36 | 32.74146 | -84.41696 | 28027 ft | 420 kts | 185° |
| 2026-05-03 22:36 | 32.71226 | -84.41633 | 28465 ft | 421 kts | 185° |
| 2026-05-03 22:36 | 32.68284 | -84.41572 | 28867 ft | 423 kts | 186° |
| 2026-05-03 22:36 | 32.65343 | -84.41512 | 29256 ft | 424 kts | 186° |
| 2026-05-03 22:37 | 32.62383 | -84.41453 | 29615 ft | 426 kts | 186° |
| 2026-05-03 22:37 | 32.59411 | -84.41397 | 29978 ft | 428 kts | 186° |
| 2026-05-03 22:37 | 32.56426 | -84.41343 | 30306 ft | 430 kts | 186° |
| 2026-05-03 22:37 | 32.53431 | -84.41291 | 30592 ft | 431 kts | 186° |
| 2026-05-03 22:38 | 32.50428 | -84.41235 | 30891 ft | 432 kts | 186° |
| 2026-05-03 22:38 | 32.47418 | -84.41170 | 31156 ft | 433 kts | 186° |
| 2026-05-03 22:38 | 32.44412 | -84.41101 | 31469 ft | 433 kts | 187° |
| 2026-05-03 22:38 | 32.41402 | -84.41034 | 31765 ft | 432 kts | 187° |
| 2026-05-03 22:39 | 32.38403 | -84.40971 | 32139 ft | 430 kts | 187° |
| 2026-05-03 22:39 | 32.35418 | -84.40910 | 32519 ft | 428 kts | 187° |
| 2026-05-03 22:39 | 32.32447 | -84.40850 | 32899 ft | 426 kts | 187° |
| 2026-05-03 22:39 | 32.29492 | -84.40792 | 33279 ft | 424 kts | 187° |
| 2026-05-03 22:40 | 32.26549 | -84.40734 | 33665 ft | 422 kts | 187° |
| 2026-05-03 22:40 | 32.23620 | -84.40672 | 34043 ft | 420 kts | 187° |
| 2026-05-03 22:40 | 32.21685 | -84.40631 | 34236 ft | 419 kts | 188° |
| 2026-05-03 22:40 | 32.18779 | -84.40572 | 34583 ft | 416 kts | 188° |
| 2026-05-03 22:41 | 32.15893 | -84.40514 | 34901 ft | 415 kts | 188° |
| 2026-05-03 22:41 | 32.13001 | -84.40459 | 35181 ft | 414 kts | 188° |
| 2026-05-03 22:41 | 32.10123 | -84.40408 | 35446 ft | 414 kts | 188° |
| 2026-05-03 22:41 | 32.07243 | -84.40357 | 35709 ft | 414 kts | 188° |
| 2026-05-03 22:42 | 32.04373 | -84.40303 | 35964 ft | 413 kts | 188° |
| 2026-05-03 22:42 | 32.01497 | -84.40246 | 36203 ft | 413 kts | 188° |
| 2026-05-03 22:42 | 31.98622 | -84.40187 | 36439 ft | 413 kts | 189° |
| 2026-05-03 22:42 | 31.95749 | -84.40130 | 36675 ft | 413 kts | 189° |
| 2026-05-03 22:43 | 31.92878 | -84.40071 | 36875 ft | 412 kts | 189° |
| 2026-05-03 22:43 | 31.90014 | -84.40013 | 37077 ft | 411 kts | 189° |
| 2026-05-03 22:43 | 31.87158 | -84.39956 | 37124 ft | 410 kts | 189° |
| 2026-05-03 22:44 | 31.81470 | -84.39843 | 37128 ft | 408 kts | 189° |
| 2026-05-03 22:44 | 31.75790 | -84.39735 | 37128 ft | 408 kts | 189° |
| 2026-05-03 22:45 | 31.70112 | -84.39627 | 37131 ft | 408 kts | 189° |
| 2026-05-03 22:45 | 31.64421 | -84.39385 | 37126 ft | 417 kts | 183° |
| 2026-05-03 22:46 | 31.58662 | -84.37981 | 37137 ft | 424 kts | 179° |
| 2026-05-03 22:46 | 31.52896 | -84.36505 | 37136 ft | 424 kts | 179° |
| 2026-05-03 22:47 | 31.47130 | -84.35048 | 37135 ft | 424 kts | 179° |
| 2026-05-03 22:47 | 31.41365 | -84.33592 | 37140 ft | 424 kts | 179° |
| 2026-05-03 22:48 | 31.35601 | -84.32143 | 37106 ft | 423 kts | 179° |
| 2026-05-03 22:48 | 31.29843 | -84.30697 | 37120 ft | 423 kts | 179° |
| 2026-05-03 22:49 | 31.24095 | -84.29247 | 37126 ft | 423 kts | 179° |
| 2026-05-03 22:49 | 31.18345 | -84.27798 | 37122 ft | 422 kts | 180° |
| 2026-05-03 22:50 | 31.12605 | -84.26354 | 37128 ft | 422 kts | 180° |
| 2026-05-03 22:50 | 31.06873 | -84.24920 | 37115 ft | 421 kts | 180° |
| 2026-05-03 22:51 | 31.01148 | -84.23483 | 37128 ft | 421 kts | 180° |
| 2026-05-03 22:51 | 30.95434 | -84.22046 | 37134 ft | 420 kts | 180° |
| 2026-05-03 22:52 | 30.89716 | -84.20617 | 37146 ft | 420 kts | 180° |
| 2026-05-03 22:52 | 30.84000 | -84.19201 | 37147 ft | 420 kts | 180° |
| 2026-05-03 22:53 | 30.78272 | -84.17782 | 37119 ft | 422 kts | 180° |
| 2026-05-03 22:53 | 30.72526 | -84.16350 | 37116 ft | 423 kts | 180° |
| 2026-05-03 22:54 | 30.66766 | -84.14914 | 37115 ft | 424 kts | 180° |
| 2026-05-03 22:54 | 30.60996 | -84.13469 | 37121 ft | 424 kts | 180° |
| 2026-05-03 22:55 | 30.55219 | -84.12031 | 37121 ft | 425 kts | 180° |
| 2026-05-03 22:55 | 30.49445 | -84.10608 | 37123 ft | 425 kts | 180° |
| 2026-05-03 22:56 | 30.43661 | -84.09182 | 37126 ft | 425 kts | 180° |
| 2026-05-03 22:56 | 30.37883 | -84.07582 | 37128 ft | 436 kts | 172° |
| 2026-05-03 22:56 | 30.35062 | -84.06128 | 37128 ft | 452 kts | 162° |
| 2026-05-03 22:57 | 30.32330 | -84.04312 | 37130 ft | 454 kts | 162° |
| 2026-05-03 22:57 | 30.26857 | -84.00653 | 37130 ft | 454 kts | 162° |
| 2026-05-03 22:58 | 30.21376 | -83.97014 | 37091 ft | 454 kts | 162° |
| 2026-05-03 22:58 | 30.15889 | -83.93378 | 37102 ft | 454 kts | 162° |
| 2026-05-03 22:59 | 30.10404 | -83.89759 | 37103 ft | 454 kts | 163° |
| 2026-05-03 22:59 | 30.04923 | -83.86140 | 37124 ft | 453 kts | 163° |
| 2026-05-03 23:00 | 29.99451 | -83.82522 | 37127 ft | 453 kts | 163° |
| 2026-05-03 23:00 | 29.93986 | -83.78912 | 37088 ft | 452 kts | 163° |
| 2026-05-03 23:01 | 29.88527 | -83.75316 | 37113 ft | 452 kts | 163° |
| 2026-05-03 23:01 | 29.83061 | -83.71735 | 37114 ft | 452 kts | 163° |
| 2026-05-03 23:02 | 29.77591 | -83.68154 | 37122 ft | 452 kts | 163° |
| 2026-05-03 23:02 | 29.72132 | -83.64573 | 37114 ft | 452 kts | 163° |
| 2026-05-03 23:03 | 29.66675 | -83.60997 | 37057 ft | 452 kts | 164° |
| 2026-05-03 23:03 | 29.61205 | -83.57423 | 37101 ft | 453 kts | 164° |
| 2026-05-03 23:04 | 29.55728 | -83.53843 | 37110 ft | 453 kts | 164° |
| 2026-05-03 23:04 | 29.50255 | -83.50265 | 37114 ft | 452 kts | 164° |
| 2026-05-03 23:05 | 29.44784 | -83.46702 | 37125 ft | 452 kts | 164° |
| 2026-05-03 23:05 | 29.39325 | -83.43157 | 37118 ft | 451 kts | 165° |
| 2026-05-03 23:06 | 29.33866 | -83.39608 | 37085 ft | 451 kts | 165° |
| 2026-05-03 23:06 | 29.28410 | -83.36065 | 37101 ft | 450 kts | 165° |
| 2026-05-03 23:07 | 29.22891 | -83.32852 | 37106 ft | 439 kts | 170° |
| 2026-05-03 23:07 | 29.17310 | -83.30024 | 37103 ft | 439 kts | 171° |
| 2026-05-03 23:08 | 29.11723 | -83.27201 | 37105 ft | 439 kts | 170° |
| 2026-05-03 23:08 | 29.06138 | -83.24369 | 37068 ft | 438 kts | 171° |
| 2026-05-03 23:09 | 29.00564 | -83.21548 | 37097 ft | 439 kts | 171° |
| 2026-05-03 23:09 | 28.94983 | -83.18723 | 37107 ft | 438 kts | 171° |
| 2026-05-03 23:10 | 28.89409 | -83.15906 | 37111 ft | 438 kts | 171° |
| 2026-05-03 23:10 | 28.83846 | -83.13096 | 37088 ft | 437 kts | 171° |
| 2026-05-03 23:11 | 28.78321 | -83.10318 | 37105 ft | 436 kts | 171° |
| 2026-05-03 23:11 | 28.72732 | -83.07518 | 37068 ft | 436 kts | 171° |
| 2026-05-03 23:12 | 28.67208 | -83.04745 | 37072 ft | 437 kts | 171° |
| 2026-05-03 23:12 | 28.61645 | -83.01945 | 37081 ft | 437 kts | 171° |
| 2026-05-03 23:13 | 28.56080 | -82.99132 | 37081 ft | 438 kts | 171° |
| 2026-05-03 23:13 | 28.50516 | -82.96285 | 37079 ft | 439 kts | 171° |
| 2026-05-03 23:14 | 28.44937 | -82.93478 | 37062 ft | 439 kts | 171° |
| 2026-05-03 23:14 | 28.39332 | -82.90710 | 37078 ft | 440 kts | 172° |
| 2026-05-03 23:15 | 28.33724 | -82.87933 | 37085 ft | 440 kts | 171° |
| 2026-05-03 23:15 | 28.28119 | -82.85144 | 37097 ft | 440 kts | 171° |
| 2026-05-03 23:16 | 28.22508 | -82.82357 | 37090 ft | 440 kts | 171° |
| 2026-05-03 23:16 | 28.16904 | -82.79581 | 37032 ft | 439 kts | 171° |
| 2026-05-03 23:17 | 28.11301 | -82.76805 | 37046 ft | 440 kts | 171° |
| 2026-05-03 23:17 | 28.05684 | -82.74025 | 37064 ft | 441 kts | 171° |
| 2026-05-03 23:18 | 28.00038 | -82.71573 | 37071 ft | 422 kts | 180° |
| 2026-05-03 23:18 | 27.94350 | -82.70389 | 37074 ft | 414 kts | 184° |
| 2026-05-03 23:19 | 27.88680 | -82.69285 | 37075 ft | 414 kts | 184° |
| 2026-05-03 23:19 | 27.82999 | -82.68178 | 37025 ft | 415 kts | 184° |
| 2026-05-03 23:20 | 27.77306 | -82.67052 | 37018 ft | 416 kts | 183° |
| 2026-05-03 23:20 | 27.71604 | -82.65923 | 37025 ft | 416 kts | 183° |
| 2026-05-03 23:21 | 27.65892 | -82.64791 | 37035 ft | 417 kts | 183° |
| 2026-05-03 23:21 | 27.60178 | -82.63670 | 37047 ft | 417 kts | 184° |
| 2026-05-03 23:22 | 27.52564 | -82.62166 | 37056 ft | 419 kts | 182° |
| 2026-05-03 23:22 | 27.46830 | -82.60638 | 37064 ft | 426 kts | 178° |
| 2026-05-03 23:23 | 27.41106 | -82.58842 | 37071 ft | 428 kts | 178° |
| 2026-05-03 23:23 | 27.34440 | -82.56781 | 37073 ft | 426 kts | 179° |
| 2026-05-03 23:24 | 27.29641 | -82.55371 | 37075 ft | 426 kts | 179° |
| 2026-05-03 23:24 | 27.23905 | -82.53712 | 37031 ft | 426 kts | 179° |
| 2026-05-03 23:25 | 27.18159 | -82.52043 | 37040 ft | 427 kts | 178° |
| 2026-05-03 23:25 | 27.12405 | -82.50366 | 37045 ft | 428 kts | 178° |
| 2026-05-03 23:26 | 27.06647 | -82.48676 | 37047 ft | 428 kts | 178° |
| 2026-05-03 23:26 | 27.00881 | -82.46983 | 37054 ft | 428 kts | 178° |
| 2026-05-03 23:27 | 26.95119 | -82.45295 | 37018 ft | 431 kts | 176° |
| 2026-05-03 23:27 | 26.92261 | -82.44087 | 37024 ft | 447 kts | 166° |
| 2026-05-03 23:27 | 26.89530 | -82.42295 | 37031 ft | 464 kts | 156° |
| 2026-05-03 23:28 | 26.84502 | -82.37555 | 37024 ft | 474 kts | 151° |
| 2026-05-03 23:28 | 26.79503 | -82.32730 | 37042 ft | 474 kts | 151° |
| 2026-05-03 23:29 | 26.74489 | -82.27920 | 37059 ft | 474 kts | 151° |
| 2026-05-03 23:29 | 26.69473 | -82.23119 | 37053 ft | 475 kts | 151° |
| 2026-05-03 23:30 | 26.66932 | -82.20703 | 36641 ft | 485 kts | 151° |
| 2026-05-03 23:30 | 26.64334 | -82.18239 | 35611 ft | 491 kts | 150° |
| 2026-05-03 23:30 | 26.61771 | -82.15793 | 34721 ft | 492 kts | 150° |
| 2026-05-03 23:30 | 26.59163 | -82.13299 | 33717 ft | 494 kts | 150° |
| 2026-05-03 23:31 | 26.56547 | -82.10800 | 32697 ft | 495 kts | 149° |
| 2026-05-03 23:31 | 26.53952 | -82.08316 | 32042 ft | 488 kts | 149° |
| 2026-05-03 23:31 | 26.51329 | -82.05790 | 31027 ft | 493 kts | 148° |
| 2026-05-03 23:31 | 26.48805 | -82.03289 | 30379 ft | 490 kts | 146° |
| 2026-05-03 23:32 | 26.46295 | -82.00738 | 29639 ft | 487 kts | 146° |
| 2026-05-03 23:32 | 26.43816 | -81.98192 | 28984 ft | 481 kts | 146° |
| 2026-05-03 23:32 | 26.41371 | -81.95684 | 28329 ft | 475 kts | 146° |
| 2026-05-03 23:32 | 26.38940 | -81.93209 | 27685 ft | 470 kts | 146° |
| 2026-05-03 23:33 | 26.36532 | -81.90780 | 27059 ft | 465 kts | 146° |
| 2026-05-03 23:33 | 26.34134 | -81.88378 | 26411 ft | 461 kts | 146° |
| 2026-05-03 23:33 | 26.31756 | -81.86007 | 25788 ft | 456 kts | 146° |
| 2026-05-03 23:33 | 26.29406 | -81.83662 | 25203 ft | 451 kts | 146° |
| 2026-05-03 23:34 | 26.27083 | -81.81339 | 24626 ft | 447 kts | 146° |
| 2026-05-03 23:34 | 26.24854 | -81.78921 | 24076 ft | 450 kts | 138° |
| 2026-05-03 23:34 | 26.22998 | -81.76096 | 23609 ft | 453 kts | 127° |
| 2026-05-03 23:34 | 26.21575 | -81.72990 | 23210 ft | 448 kts | 121° |
| 2026-05-03 23:35 | 26.20231 | -81.69877 | 22667 ft | 444 kts | 121° |
| 2026-05-03 23:35 | 26.18892 | -81.66798 | 22148 ft | 440 kts | 121° |
| 2026-05-03 23:35 | 26.17557 | -81.63746 | 21661 ft | 436 kts | 121° |
| 2026-05-03 23:35 | 26.16239 | -81.60732 | 21178 ft | 431 kts | 121° |
| 2026-05-03 23:36 | 26.14931 | -81.57743 | 20703 ft | 427 kts | 121° |
| 2026-05-03 23:36 | 26.13636 | -81.54780 | 20226 ft | 424 kts | 121° |
| 2026-05-03 23:36 | 26.12355 | -81.51843 | 19750 ft | 420 kts | 121° |
| 2026-05-03 23:36 | 26.11069 | -81.48897 | 19256 ft | 414 kts | 121° |
| 2026-05-03 23:37 | 26.09821 | -81.46032 | 18420 ft | 408 kts | 121° |
| 2026-05-03 23:37 | 26.08607 | -81.43249 | 17526 ft | 402 kts | 120° |
| 2026-05-03 23:37 | 26.07400 | -81.40488 | 17011 ft | 393 kts | 120° |
| 2026-05-03 23:37 | 26.06208 | -81.37765 | 16528 ft | 391 kts | 120° |
| 2026-05-03 23:38 | 26.05024 | -81.35054 | 16033 ft | 389 kts | 120° |
| 2026-05-03 23:38 | 26.03845 | -81.32350 | 15540 ft | 388 kts | 120° |
| 2026-05-03 23:38 | 26.02670 | -81.29660 | 15050 ft | 386 kts | 120° |
| 2026-05-03 23:38 | 26.01498 | -81.26978 | 14612 ft | 384 kts | 120° |
| 2026-05-03 23:39 | 26.00335 | -81.24311 | 14138 ft | 382 kts | 119° |
| 2026-05-03 23:39 | 25.99171 | -81.21640 | 13783 ft | 377 kts | 119° |
| 2026-05-03 23:39 | 25.98043 | -81.19053 | 13276 ft | 375 kts | 119° |
| 2026-05-03 23:39 | 25.96909 | -81.16453 | 12804 ft | 372 kts | 119° |
| 2026-05-03 23:40 | 25.95785 | -81.13880 | 12327 ft | 369 kts | 119° |
| 2026-05-03 23:40 | 25.94670 | -81.11332 | 11856 ft | 365 kts | 119° |
| 2026-05-03 23:40 | 25.93562 | -81.08810 | 11379 ft | 362 kts | 119° |
| 2026-05-03 23:40 | 25.92461 | -81.06305 | 10912 ft | 359 kts | 119° |
| 2026-05-03 23:41 | 25.91382 | -81.03850 | 10718 ft | 347 kts | 118° |
| 2026-05-03 23:41 | 25.90388 | -81.01465 | 10599 ft | 334 kts | 117° |
| 2026-05-03 23:41 | 25.89489 | -80.99143 | 10475 ft | 319 kts | 116° |
| 2026-05-03 23:41 | 25.88660 | -80.96926 | 10125 ft | 305 kts | 115° |
| 2026-05-03 23:42 | 25.87854 | -80.94759 | 9696 ft | 303 kts | 115° |
| 2026-05-03 23:42 | 25.87049 | -80.92610 | 9362 ft | 299 kts | 116° |
| 2026-05-03 23:42 | 25.86249 | -80.90496 | 8884 ft | 295 kts | 116° |
| 2026-05-03 23:42 | 25.85455 | -80.88412 | 8292 ft | 294 kts | 116° |
| 2026-05-03 23:43 | 25.84655 | -80.86333 | 7941 ft | 291 kts | 116° |
| 2026-05-03 23:43 | 25.83861 | -80.84276 | 7591 ft | 289 kts | 116° |
| 2026-05-03 23:43 | 25.83073 | -80.82236 | 7237 ft | 286 kts | 116° |
| 2026-05-03 23:43 | 25.82291 | -80.80212 | 6874 ft | 285 kts | 116° |
| 2026-05-03 23:44 | 25.81517 | -80.78199 | 6519 ft | 283 kts | 115° |
| 2026-05-03 23:44 | 25.80748 | -80.76201 | 6142 ft | 280 kts | 115° |
| 2026-05-03 23:44 | 25.79988 | -80.74231 | 5894 ft | 273 kts | 115° |
| 2026-05-03 23:44 | 25.79251 | -80.72321 | 5625 ft | 267 kts | 115° |
| 2026-05-03 23:45 | 25.78523 | -80.70442 | 5284 ft | 265 kts | 115° |
| 2026-05-03 23:45 | 25.77801 | -80.68574 | 4954 ft | 262 kts | 115° |
| 2026-05-03 23:45 | 25.77255 | -80.66652 | 4609 ft | 261 kts | 101° |
| 2026-05-03 23:45 | 25.77157 | -80.64671 | 4445 ft | 252 kts | 89° |
| 2026-05-03 23:46 | 25.77249 | -80.62775 | 4308 ft | 241 kts | 86° |
| 2026-05-03 23:46 | 25.77344 | -80.60960 | 4147 ft | 232 kts | 87° |
| 2026-05-03 23:46 | 25.77423 | -80.59202 | 4011 ft | 224 kts | 88° |
| 2026-05-03 23:46 | 25.77497 | -80.57505 | 3889 ft | 217 kts | 87° |
| 2026-05-03 23:47 | 25.77568 | -80.55860 | 3755 ft | 210 kts | 87° |
| 2026-05-03 23:47 | 25.77638 | -80.54252 | 3556 ft | 208 kts | 87° |
| 2026-05-03 23:47 | 25.77707 | -80.52664 | 3367 ft | 204 kts | 87° |
| 2026-05-03 23:47 | 25.77775 | -80.51097 | 3161 ft | 202 kts | 87° |
| 2026-05-03 23:48 | 25.77842 | -80.49547 | 3060 ft | 202 kts | 87° |
| 2026-05-03 23:48 | 25.77909 | -80.47986 | 2880 ft | 203 kts | 87° |
| 2026-05-03 23:48 | 25.77976 | -80.46426 | 2645 ft | 202 kts | 87° |
| 2026-05-03 23:48 | 25.78041 | -80.44893 | 2396 ft | 196 kts | 87° |
| 2026-05-03 23:49 | 25.78104 | -80.43436 | 2168 ft | 183 kts | 87° |
| 2026-05-03 23:49 | 25.78162 | -80.42061 | 1913 ft | 173 kts | 86° |
| 2026-05-03 23:49 | 25.78217 | -80.40762 | 1686 ft | 164 kts | 86° |
| 2026-05-03 23:49 | 25.78269 | -80.39537 | 1477 ft | 155 kts | 86° |
| 2026-05-03 23:50 | 25.78318 | -80.38378 | 1270 ft | 146 kts | 86° |
| 2026-05-03 23:50 | 25.78349 | -80.37648 | 1173 ft | 141 kts | 85° |
| 2026-05-03 23:50 | 25.78410 | -80.36211 | 931 ft | 138 kts | 85° |
| 2026-05-03 23:50 | 25.78454 | -80.35160 | 765 ft | 136 kts | 86° |
| 2026-05-03 23:51 | 25.78494 | -80.34125 | 602 ft | 133 kts | 86° |
| 2026-05-03 23:51 | 25.78530 | -80.33101 | 468 ft | 132 kts | 85° |
| 2026-05-03 23:51 | 25.78584 | -80.32091 | 259 ft | 129 kts | 85° |
| 2026-05-03 23:51 | 25.78624 | -80.31099 | 61 ft | 127 kts | 85° |
| 2026-05-03 23:52 | 25.78678 | -80.30133 | 19 ft | 116 kts | 84° |
| 2026-05-03 23:52 | 25.78710 | -80.29434 | 16 ft | 55 kts | 83° |
| 2026-05-03 23:52 | 25.78770 | -80.29199 | 18 ft | 28 kts | 53° |
| 2026-05-03 23:52 | 25.78830 | -80.29014 | 18 ft | 25 kts | 78° |
| 2026-05-03 23:53 | 25.78867 | -80.28842 | 15 ft | 24 kts | 85° |
| 2026-05-03 23:53 | 25.78873 | -80.28656 | 15 ft | 24 kts | 86° |
| 2026-05-03 23:53 | 25.78880 | -80.28471 | 19 ft | 24 kts | 88° |
| 2026-05-03 23:53 | 25.78888 | -80.28277 | 18 ft | 26 kts | 85° |
| 2026-05-03 23:54 | 25.78904 | -80.28079 | 22 ft | 23 kts | 85° |
| 2026-05-03 23:54 | 25.78876 | -80.27904 | 21 ft | 24 kts | 95° |
| 2026-05-03 23:54 | 25.78891 | -80.27704 | 18 ft | 27 kts | 82° |
| 2026-05-03 23:54 | 25.78944 | -80.27564 | 19 ft | 19 kts | 32° |
| 2026-05-03 23:55 | 25.79076 | -80.27534 | 17 ft | 16 kts | 359° |
| 2026-05-03 23:55 | 25.79154 | -80.27541 | 17 ft | 10 kts | 353° |
| 2026-05-03 23:55 | 25.79195 | -80.27579 | 18 ft | 6 kts | 292° |
| 2026-05-03 23:55 | 25.79195 | -80.27611 | 19 ft | 0 kts | 266° |